Terminal Aerodrome Forecast
Issued by NWS Cleveland, OH

Home | Current Version | Previous Version | Text Only | Print | Product List | Glossary Off
Versions: 1 2 3 4 5 6 7 8 9 10 11 12 13 14 15 16

000
FTUS41 KCLE 220755 AAB
TAFYNG
TAF AMD
KYNG 220755Z 2208/2306 00000KT 1/4SM FG BKN001
     FM221200 VRB03KT 3SM BR SCT003 SCT100
      TEMPO 2212/2213 1/4SM FG BKN003
     FM221400 34006KT P6SM SCT035 BKN100
     FM221700 35012G20KT P6SM SCT025 BKN035
     FM230200 35005KT P6SM SCT035=

USA.gov is the U.S. government's official web portal to all federal, state and local government web resources and services.